createdAt,value
2023-03-17T00:01:06.387Z,101485.47
2023-03-17T00:04:13.604Z,101492.41
2023-03-17T00:07:17.289Z,101494.41
2023-03-17T00:10:26.950Z,101496.81
2023-03-17T00:13:33.396Z,101489.12
2023-03-17T00:16:43.006Z,101493.22
2023-03-17T00:19:46.627Z,101491.28
2023-03-17T00:22:51.158Z,101489.78
2023-03-17T00:25:57.275Z,101491.16
2023-03-17T00:29:01.377Z,101488.91
2023-03-17T00:32:05.160Z,101482.13
2023-03-17T00:35:17.292Z,101483.94
2023-03-17T00:38:23.064Z,101482.41
2023-03-17T00:41:27.392Z,101477.63
2023-03-17T00:44:30.202Z,101479.28
2023-03-17T00:47:33.772Z,101480.38
2023-03-17T00:50:37.121Z,101485.34
2023-03-17T00:53:40.627Z,101470.19
2023-03-17T00:56:45.227Z,101467.19
2023-03-17T00:59:48.228Z,101465.38
2023-03-17T01:02:56.865Z,101469.47
2023-03-17T01:06:01.664Z,101469.66
2023-03-17T01:09:09.149Z,101465.28
2023-03-17T01:12:14.120Z,101465.91
2023-03-17T01:15:17.579Z,101465.00
2023-03-17T01:18:22.896Z,101468.16
2023-03-17T01:21:25.880Z,101472.38
2023-03-17T01:24:29.144Z,101466.09
2023-03-17T01:27:36.596Z,101473.63
2023-03-17T01:30:40.593Z,101467.59
2023-03-17T01:33:43.055Z,101470.00
2023-03-17T01:36:47.426Z,101472.72
2023-03-17T01:39:51.419Z,101470.00
2023-03-17T01:43:02.841Z,101463.38
2023-03-17T01:46:14.883Z,101462.47
2023-03-17T01:49:38.187Z,101473.94
2023-03-17T01:52:41.535Z,101474.66
2023-03-17T01:55:46.466Z,101473.19
2023-03-17T01:58:54.448Z,101482.94
2023-03-17T02:02:10.882Z,101487.19
2023-03-17T02:05:17.942Z,101476.22
2023-03-17T02:08:21.136Z,101471.56
2023-03-17T02:11:24.021Z,101468.25
2023-03-17T02:14:27.514Z,101467.69
2023-03-17T02:17:30.446Z,101469.66
2023-03-17T02:20:32.851Z,101482.59
2023-03-17T02:23:36.713Z,101489.66
2023-03-17T02:26:45.699Z,101493.12
2023-03-17T02:29:49.175Z,101500.34
2023-03-17T02:32:52.702Z,101503.81
2023-03-17T02:35:57.899Z,101507.72
2023-03-17T02:39:01.033Z,101513.44
2023-03-17T02:42:06.593Z,101515.53
2023-03-17T02:45:11.690Z,101512.53
2023-03-17T02:48:14.847Z,101510.44
2023-03-17T02:51:17.622Z,101510.91
2023-03-17T02:54:20.433Z,101511.06
2023-03-17T02:57:23.545Z,101507.91
2023-03-17T03:00:28.522Z,101517.84
2023-03-17T03:03:31.657Z,101509.13
2023-03-17T03:06:36.776Z,101513.03
2023-03-17T03:09:40.028Z,101515.00
2023-03-17T03:12:43.236Z,101520.56
2023-03-17T03:15:45.918Z,101517.81
2023-03-17T03:18:48.940Z,101505.97
2023-03-17T03:21:51.614Z,101516.75
2023-03-17T03:24:54.847Z,101508.66
2023-03-17T03:27:57.260Z,101508.97
2023-03-17T03:31:00.280Z,101511.78
2023-03-17T03:34:03.802Z,101505.94
2023-03-17T03:37:08.212Z,101510.28
2023-03-17T03:40:12.948Z,101513.75
2023-03-17T03:43:23.460Z,101510.16
2023-03-17T03:46:28.221Z,101509.53
2023-03-17T03:49:30.932Z,101513.00
2023-03-17T03:52:34.512Z,101516.31
2023-03-17T03:55:37.550Z,101507.59
2023-03-17T03:58:42.368Z,101511.50
2023-03-17T04:01:45.726Z,101506.38
2023-03-17T04:04:50.456Z,101500.38
2023-03-17T04:07:53.790Z,101496.75
2023-03-17T04:10:57.838Z,101495.41
2023-03-17T04:14:01.210Z,101497.81
2023-03-17T04:17:05.308Z,101497.06
2023-03-17T04:20:08.963Z,101509.25
2023-03-17T04:23:20.189Z,101496.75
2023-03-17T04:26:23.626Z,101489.25
2023-03-17T04:29:27.558Z,101485.94
2023-03-17T04:32:32.178Z,101494.81
2023-03-17T04:35:35.100Z,101499.78
2023-03-17T04:38:43.401Z,101501.72
2023-03-17T04:41:47.966Z,101502.19
2023-03-17T04:44:50.861Z,101502.62
2023-03-17T04:47:56.578Z,101508.50
2023-03-17T04:51:02.161Z,101507.44
2023-03-17T04:54:07.319Z,101508.94
2023-03-17T04:57:10.548Z,101506.38
2023-03-17T05:00:15.594Z,101515.56
2023-03-17T05:03:27.327Z,101521.28
2023-03-17T05:06:38.212Z,101524.28
2023-03-17T05:09:42.051Z,101525.81
2023-03-17T05:12:45.418Z,101519.50
2023-03-17T05:15:53.139Z,101522.06
2023-03-17T05:18:57.942Z,101521.91
2023-03-17T05:22:01.736Z,101526.72
2023-03-17T05:25:07.100Z,101532.72
2023-03-17T05:28:16.981Z,101522.19
2023-03-17T05:31:20.671Z,101525.91
2023-03-17T05:34:25.045Z,101528.44
2023-03-17T05:37:34.141Z,101527.59
2023-03-17T05:40:38.630Z,101531.06
2023-03-17T05:43:44.068Z,101532.25
2023-03-17T05:46:47.635Z,101533.47
2023-03-17T05:49:52.768Z,101543.41
2023-03-17T05:52:56.283Z,101543.06
2023-03-17T05:56:10.107Z,101533.81
2023-03-17T05:59:16.875Z,101531.34
2023-03-17T06:02:20.898Z,101525.97
2023-03-17T06:05:24.209Z,101518.84
2023-03-17T06:08:28.401Z,101524.31
2023-03-17T06:11:34.737Z,101522.00
2023-03-17T06:14:39.122Z,101524.56
2023-03-17T06:17:43.133Z,101520.97
2023-03-17T06:20:46.885Z,101521.41
2023-03-17T06:23:51.236Z,101525.81
2023-03-17T06:26:55.267Z,101521.78
2023-03-17T06:30:05.114Z,101509.22
2023-03-17T06:33:10.171Z,101507.25
2023-03-17T06:36:14.336Z,101525.97
2023-03-17T06:39:27.496Z,101520.97
2023-03-17T06:42:38.596Z,101520.53
2023-03-17T06:45:42.464Z,101521.06
2023-03-17T06:48:45.963Z,101523.16
2023-03-17T06:51:50.764Z,101522.63
2023-03-17T06:54:55.878Z,101528.78
2023-03-17T06:57:59.134Z,101511.31
2023-03-17T07:01:02.526Z,101525.37
2023-03-17T07:04:11.181Z,101520.69
2023-03-17T07:07:22.992Z,101520.91
2023-03-17T07:10:28.058Z,101521.69
2023-03-17T07:13:35.729Z,101526.97
2023-03-17T07:16:42.558Z,101529.38
2023-03-17T07:19:48.628Z,101533.84
2023-03-17T07:22:51.852Z,101538.47
2023-03-17T07:26:01.103Z,101538.16
2023-03-17T07:29:04.571Z,101545.37
2023-03-17T07:32:09.785Z,101539.38
2023-03-17T07:35:14.669Z,101547.56
2023-03-17T07:38:19.528Z,101550.53
2023-03-17T07:41:22.340Z,101546.00
2023-03-17T07:44:28.123Z,101541.56
2023-03-17T07:47:31.009Z,101547.75
2023-03-17T07:50:36.255Z,101551.66
2023-03-17T07:53:47.017Z,101559.56
2023-03-17T07:56:50.464Z,101556.88
2023-03-17T07:59:53.748Z,101551.13
2023-03-17T08:03:09.287Z,101544.00
2023-03-17T08:06:17.101Z,101544.75
2023-03-17T08:09:22.451Z,101543.13
2023-03-17T08:12:29.112Z,101534.97
2023-03-17T08:15:33.676Z,101544.19
2023-03-17T08:18:37.689Z,101542.34
2023-03-17T08:21:42.719Z,101525.25
2023-03-17T08:24:49.885Z,101516.69
2023-03-17T08:27:56.063Z,101532.47
2023-03-17T08:31:17.276Z,101521.37
2023-03-17T08:34:20.804Z,101533.28
2023-03-17T08:37:24.760Z,101526.28
2023-03-17T08:40:30.481Z,101528.69
2023-03-17T08:43:36.259Z,101522.34
2023-03-17T08:46:46.993Z,101522.88
2023-03-17T08:49:51.107Z,101530.78
2023-03-17T08:52:57.031Z,101535.50
2023-03-17T08:56:14.047Z,101534.31
2023-03-17T08:59:17.767Z,101537.38
2023-03-17T09:02:21.543Z,101521.66
2023-03-17T09:05:26.100Z,101515.81
2023-03-17T09:08:31.084Z,101521.06
2023-03-17T09:11:35.112Z,101518.34
2023-03-17T09:14:43.946Z,101508.88
2023-03-17T09:17:47.473Z,101516.91
2023-03-17T09:20:51.252Z,101524.66
2023-03-17T09:23:54.683Z,101513.72
2023-03-17T09:27:01.424Z,101518.19
2023-03-17T09:30:06.317Z,101514.38
2023-03-17T09:33:12.177Z,101513.03
2023-03-17T09:36:15.531Z,101514.50
2023-03-17T09:39:20.044Z,101493.59
2023-03-17T09:43:04.101Z,101510.91
2023-03-17T09:46:27.263Z,101513.16
2023-03-17T09:49:42.477Z,101503.16
2023-03-17T09:52:51.346Z,101508.78
2023-03-17T09:55:59.068Z,101497.69
2023-03-17T09:59:23.447Z,101494.78
2023-03-17T10:02:33.119Z,101500.41
2023-03-17T10:05:42.231Z,101495.44
2023-03-17T10:08:55.317Z,101475.41
2023-03-17T10:12:10.943Z,101479.03
2023-03-17T10:15:27.222Z,101484.09
2023-03-17T10:18:40.118Z,101482.31
2023-03-17T10:21:54.147Z,101475.94
2023-03-17T10:25:11.118Z,101476.78
2023-03-17T10:28:32.630Z,101473.41
2023-03-17T10:31:38.048Z,101468.41
2023-03-17T10:34:45.924Z,101461.84
2023-03-17T10:37:49.736Z,101460.03
2023-03-17T10:40:59.618Z,101456.87
2023-03-17T10:44:10.300Z,101449.56
2023-03-17T10:47:33.437Z,101453.78
2023-03-17T10:50:43.315Z,101452.16
2023-03-17T10:53:46.497Z,101445.69
2023-03-17T10:57:03.051Z,101435.59
2023-03-17T11:00:23.012Z,101433.97
2023-03-17T11:03:39.884Z,101428.88
2023-03-17T11:06:44.273Z,101424.72
2023-03-17T11:09:58.380Z,101419.25
2023-03-17T11:13:02.315Z,101418.31
2023-03-17T11:16:22.231Z,101422.94
2023-03-17T11:20:02.085Z,101414.94
2023-03-17T11:23:26.477Z,101412.44
2023-03-17T11:27:14.274Z,101401.16
2023-03-17T11:30:23.569Z,101395.34
2023-03-17T11:33:38.546Z,101392.47
2023-03-17T11:37:07.096Z,101397.31
2023-03-17T11:40:34.080Z,101390.34
2023-03-17T11:58:42.926Z,101370.19
2023-03-17T12:01:56.737Z,101360.88
2023-03-17T12:05:05.997Z,101359.34
2023-03-17T12:08:41.009Z,101350.81
2023-03-17T12:11:56.141Z,101348.41
2023-03-17T12:15:09.116Z,101336.41
2023-03-17T12:18:27.212Z,101332.56
2023-03-17T12:21:47.645Z,101320.81
2023-03-17T12:25:16.638Z,101319.72
2023-03-17T12:28:27.917Z,101318.91
2023-03-17T12:31:36.087Z,101321.22
2023-03-17T12:34:47.895Z,101310.09
2023-03-17T12:37:53.634Z,101294.81
2023-03-17T12:41:33.051Z,101297.78
2023-03-17T12:44:55.117Z,101298.88
2023-03-17T12:48:37.899Z,101299.00
2023-03-17T12:52:12.701Z,101288.09
2023-03-17T12:55:19.317Z,101297.78
2023-03-17T12:58:39.277Z,101303.94
2023-03-17T13:02:06.207Z,101291.78
2023-03-17T13:05:16.593Z,101280.63
2023-03-17T13:08:33.565Z,101275.28
2023-03-17T13:11:37.450Z,101276.88
2023-03-17T13:14:48.356Z,101278.66
2023-03-17T13:18:16.229Z,101271.66
2023-03-17T13:21:25.120Z,101274.37
2023-03-17T13:24:54.110Z,101271.53
2023-03-17T13:28:17.240Z,101265.28
2023-03-17T13:31:37.164Z,101253.16
2023-03-17T13:34:55.722Z,101245.56
2023-03-17T13:38:24.830Z,101242.88
2023-03-17T13:41:42.460Z,101240.03
2023-03-17T13:45:05.693Z,101248.84
2023-03-17T13:48:39.242Z,101245.25
2023-03-17T13:51:59.064Z,101246.66
2023-03-17T13:55:24.103Z,101240.37
2023-03-17T13:58:34.367Z,101252.94
2023-03-17T14:02:00.072Z,101248.81
2023-03-17T14:05:28.367Z,101250.47
2023-03-17T14:08:44.688Z,101240.56
2023-03-17T14:11:52.163Z,101232.00
2023-03-17T14:15:07.065Z,101241.38
2023-03-17T14:18:33.483Z,101237.53
2023-03-17T14:21:37.526Z,101225.94
2023-03-17T14:24:42.568Z,101226.28
2023-03-17T14:27:56.303Z,101216.63
2023-03-17T14:31:06.087Z,101213.37
2023-03-17T14:34:18.993Z,101198.50
2023-03-17T14:37:26.242Z,101200.53
2023-03-17T14:40:37.158Z,101198.00
2023-03-17T14:43:47.284Z,101191.47
2023-03-17T14:46:51.111Z,101190.31
2023-03-17T14:50:04.101Z,101187.97
2023-03-17T14:53:16.306Z,101190.28
2023-03-17T14:56:26.102Z,101181.63
2023-03-17T14:59:34.740Z,101183.72
2023-03-17T15:02:41.492Z,101167.44
2023-03-17T15:05:51.338Z,101166.84
2023-03-17T15:09:01.352Z,101156.91
2023-03-17T15:12:19.166Z,101142.72
2023-03-17T15:15:37.485Z,101143.94
2023-03-17T15:18:45.086Z,101150.47
2023-03-17T15:21:49.982Z,101136.59
2023-03-17T15:25:21.081Z,101142.37
2023-03-17T15:28:35.103Z,101145.06
2023-03-17T15:31:38.615Z,101141.56
2023-03-17T15:34:50.007Z,101135.16
2023-03-17T15:37:56.598Z,101133.97
2023-03-17T15:41:08.804Z,101137.22
2023-03-17T15:44:22.030Z,101135.34
2023-03-17T15:47:28.229Z,101128.63
2023-03-17T15:50:39.248Z,101129.47
2023-03-17T15:53:55.093Z,101128.28
2023-03-17T15:57:02.168Z,101129.63
2023-03-17T16:00:17.065Z,101121.72
2023-03-17T16:03:48.138Z,101125.03
2023-03-17T16:07:03.083Z,101117.59
2023-03-17T16:10:26.119Z,101119.50
2023-03-17T16:13:31.002Z,101129.63
2023-03-17T16:16:46.124Z,101122.19
2023-03-17T16:19:52.894Z,101117.59
2023-03-17T16:23:32.176Z,101123.00
2023-03-17T16:26:40.306Z,101126.19
2023-03-17T16:29:56.477Z,101122.41
2023-03-17T16:33:06.875Z,101135.06
2023-03-17T16:36:21.116Z,101129.47
2023-03-17T16:39:33.585Z,101130.88
2023-03-17T16:42:44.373Z,101136.13
2023-03-17T16:45:51.034Z,101138.19
2023-03-17T16:49:03.942Z,101141.84
2023-03-17T16:52:09.303Z,101137.59
2023-03-17T16:55:16.442Z,101134.44
2023-03-17T16:58:29.945Z,101138.81
2023-03-17T17:01:45.075Z,101136.47
2023-03-17T17:05:02.060Z,101136.59
2023-03-17T17:08:06.487Z,101140.06
2023-03-17T17:11:19.006Z,101145.13
2023-03-17T17:14:32.082Z,101151.59
2023-03-17T17:17:45.971Z,101150.88
2023-03-17T17:20:57.509Z,101152.53
2023-03-17T17:24:04.312Z,101140.28
2023-03-17T17:27:14.050Z,101148.25
2023-03-17T17:30:25.070Z,101142.34
2023-03-17T17:33:29.168Z,101141.50
2023-03-17T17:36:49.041Z,101137.12
2023-03-17T17:39:56.459Z,101140.78
2023-03-17T17:43:03.171Z,101144.41
2023-03-17T17:46:27.993Z,101143.66
2023-03-17T17:49:33.924Z,101143.03
2023-03-17T17:52:45.214Z,101143.88
2023-03-17T17:55:52.307Z,101140.53
2023-03-17T17:58:57.244Z,101144.22
2023-03-17T18:02:01.872Z,101143.31
2023-03-17T18:05:08.077Z,101139.72
2023-03-17T18:08:16.251Z,101138.75
2023-03-17T18:11:24.044Z,101148.28
2023-03-17T18:14:27.843Z,101148.28
2023-03-17T18:17:40.380Z,101145.91
2023-03-17T18:20:54.110Z,101149.56
2023-03-17T18:24:04.879Z,101149.37
2023-03-17T18:27:11.146Z,101142.59
2023-03-17T18:30:25.392Z,101149.47
2023-03-17T18:33:34.999Z,101152.88
2023-03-17T18:36:55.266Z,101159.56
2023-03-17T18:40:14.314Z,101149.59
2023-03-17T18:43:35.900Z,101145.94
2023-03-17T18:46:49.078Z,101140.38
2023-03-17T18:49:58.038Z,101145.84
2023-03-17T18:53:07.994Z,101145.75
2023-03-17T18:56:23.989Z,101148.75
2023-03-17T18:59:34.394Z,101149.44
2023-03-17T19:02:39.233Z,101153.34
2023-03-17T19:05:45.074Z,101156.53
2023-03-17T19:08:51.116Z,101145.66
2023-03-17T19:12:04.661Z,101150.12
2023-03-17T19:15:15.409Z,101145.16
2023-03-17T19:18:22.123Z,101140.28
2023-03-17T19:21:26.843Z,101143.06
2023-03-17T19:24:32.287Z,101140.56
2023-03-17T19:27:44.030Z,101140.72
2023-03-17T19:30:47.947Z,101142.78
2023-03-17T19:33:52.757Z,101145.47
2023-03-17T19:36:59.679Z,101135.19
2023-03-17T19:40:14.034Z,101135.69
2023-03-17T19:43:39.086Z,101129.69
2023-03-17T19:46:51.296Z,101133.31
2023-03-17T19:49:58.795Z,101134.56
2023-03-17T19:53:11.946Z,101136.59
2023-03-17T19:56:21.650Z,101126.66
2023-03-17T19:59:30.382Z,101129.91
2023-03-17T20:02:40.996Z,101129.28
2023-03-17T20:05:46.633Z,101119.31
2023-03-17T20:08:54.352Z,101118.34
2023-03-17T20:12:06.042Z,101116.78
2023-03-17T20:15:17.008Z,101109.28
2023-03-17T20:18:30.025Z,101117.69
2023-03-17T20:21:34.004Z,101117.56
2023-03-17T20:24:39.263Z,101119.94
2023-03-17T20:27:44.206Z,101118.59
2023-03-17T20:30:52.091Z,101115.47
2023-03-17T20:34:04.947Z,101117.81
2023-03-17T20:37:14.580Z,101114.13
2023-03-17T20:40:18.616Z,101111.69
2023-03-17T20:43:25.031Z,101108.75
2023-03-17T20:46:29.815Z,101115.94
2023-03-17T20:49:34.345Z,101117.28
2023-03-17T20:52:38.428Z,101116.28
2023-03-17T20:55:50.709Z,101121.87
2023-03-17T20:58:58.445Z,101119.38
2023-03-17T21:02:08.958Z,101120.03
2023-03-17T21:05:24.908Z,101108.50
2023-03-17T21:08:30.084Z,101115.44
2023-03-17T21:11:34.657Z,101108.37
2023-03-17T21:14:51.014Z,101109.47
2023-03-17T21:17:54.884Z,101110.25
2023-03-17T21:20:58.657Z,101107.56
2023-03-17T21:24:04.041Z,101093.09
2023-03-17T21:27:11.288Z,101102.94
2023-03-17T21:30:14.996Z,101100.47
2023-03-17T21:33:20.092Z,101100.25
2023-03-17T21:36:23.306Z,101097.44
2023-03-17T21:39:29.767Z,101091.28
2023-03-17T21:42:33.825Z,101092.97
2023-03-17T21:45:40.217Z,101094.09
2023-03-17T21:48:44.166Z,101093.31
2023-03-17T21:51:48.034Z,101090.84
2023-03-17T21:54:51.816Z,101102.47
2023-03-17T21:57:57.052Z,101097.72
2023-03-17T22:01:01.061Z,101099.41
2023-03-17T22:04:05.972Z,101100.41
2023-03-17T22:07:13.226Z,101096.31
2023-03-17T22:10:18.320Z,101101.09
2023-03-17T22:13:22.648Z,101108.13
2023-03-17T22:16:26.453Z,101101.97
2023-03-17T22:19:33.277Z,101101.97
2023-03-17T22:22:37.058Z,101104.09
2023-03-17T22:25:40.034Z,101095.66
2023-03-17T22:28:49.075Z,101107.19
2023-03-17T22:31:52.845Z,101106.97
2023-03-17T22:34:55.885Z,101118.34
2023-03-17T22:38:00.128Z,101109.84
2023-03-17T22:41:10.578Z,101102.44
2023-03-17T22:44:16.002Z,101100.41
2023-03-17T22:47:18.962Z,101099.16
2023-03-17T22:50:22.513Z,101101.63
2023-03-17T22:53:26.840Z,101096.22
2023-03-17T22:56:30.206Z,101085.88
2023-03-17T22:59:40.920Z,101084.25
2023-03-17T23:02:46.536Z,101082.06
2023-03-17T23:05:52.783Z,101081.81
2023-03-17T23:08:56.328Z,101082.22
2023-03-17T23:12:00.835Z,101088.00
2023-03-17T23:15:06.952Z,101092.13
2023-03-17T23:18:10.971Z,101099.84
2023-03-17T23:21:34.983Z,101088.41
2023-03-17T23:24:38.191Z,101076.34
2023-03-17T23:27:43.663Z,101072.94
2023-03-17T23:30:47.557Z,101080.59
2023-03-17T23:33:51.290Z,101077.59
2023-03-17T23:36:54.740Z,101079.16
2023-03-17T23:39:57.708Z,101079.28
2023-03-17T23:43:00.766Z,101069.53
2023-03-17T23:46:04.925Z,101074.31
2023-03-17T23:49:07.795Z,101073.06
2023-03-17T23:52:11.343Z,101074.72
2023-03-17T23:55:16.107Z,101074.19
2023-03-17T23:58:21.406Z,101073.00
